FTTH31 VTBU 250500
TAF VTBU 250500Z 2506/2606 18008KT 9000 FEW020=



FTTH31 VTSP 250500
TAF VTSP 250500Z 2506/2612 10007KT 9999 FEW020
BECMG 2508/2510 29008KT
BECMG 2515/2517 00000KT
BECMG 2601/2603 10007KT
BECMG 2608/2610 29008KT=
TAF VTSG 250500Z 2506/2606 08008KT 9999 FEW020=
TAF VTST 250500Z 2506/2606 06008KT 9999 FEW020=
TAF VTSR 250500Z 2506/2606 07008KT 9999 FEW030
BECMG 2513/2515 00000KT
BECMG 2602/2604 07006KT=



FTTH31 VTSS 250500
TAF VTSS 250500Z 2506/2606 07010KT 9999 FEW020
BECMG 2513/2515 29003KT
BECMG 2604/2606 07010KT=

TAF VTSH 250500Z 2506/2606 09010KT 9999 FEW020=

TAF VTSE 250500Z 2506/2606 14008KT 9999 FEW020=

TAF VTSM 250500Z 2506/2606 15010KT 9999 FEW020=

TAF VTSB 250500Z 2506/2606 06010KT 9999 FEW020
BECMG 2516/2518 33003KT
BECMG 2604/2606 06010KT=

TAF VTSF 250500Z 2506/2606 13008KT 9999 FEW020=

TAF VTSK 250500Z 2506/2606 10010KT 9999 FEW020=

TAF VTSC 250500Z 2506/2606 09010KT 9999 FEW020
BECMG 2514/2516 19003KT
BECMG 2604/2606 09010KT=



FTTH31 VTBS 250500
TAF VTBS 250500Z 2506/2612 21010KT 9000 FEW020 SCT100
TEMPO 2506/2510 20010G25KT 4000 TSRA FEW018CB SCT030 BKN100=
TAF VTBD 250500Z 2506/2612 19010KT 9000 FEW020 SCT100
TEMPO 2506/2510 18010G25KT 4000 TSRA FEW018CB SCT030 BKN100=
TAF VTBO 250500Z 2506/2606 23010KT 8000 FEW020 SCT100
BECMG 2518/2520 11005KT 4000 BR
BECMG 2601/2603 20010KT 8000 NSW=
TAF VTPH 250500Z 2506/2606 15010KT 9000 FEW030
BECMG 2519/2521 23008KT
BECMG 2601/2603 14010KT=



FTTH31 VTUU 250500
TAF VTUU 250500Z 2506/2606 18005KT 9000 FEW030
TEMPO 2523/2601 VRB10KT 5000 RA SCT020=
TAF VTUJ 250500Z 2506/2606 21005KT 8000 FEW030
BECMG 2520/2522 4000 BR
BECMG 2601/2603 7000 NSW=
TAF VTUO 250500Z 2506/2606 23006KT 8000 FEW030
BECMG 2520/2522 4000 BR
BECMG 2602/2604 7000 NSW=
TAF VTUQ 250500Z 2506/2606 21006KT 9000 FEW030
BECMG 2520/2522 4000 BR
BECMG 2602/2604 7000 NSW=
TAF VTUV 250500Z 2506/2606 17006KT 8000 FEW030
BECMG 2521/2523 5000 BR
TEMPO 2522/2524 VRB10KT 5000 RA SCT020
BECMG 2601/2603 7000 NSW=



FTTH31 VTUK 250500

TAF VTUK 250500Z 2506/2606 10005KT 8000 SCT030 BKN100
BECMG 2521/2523 5000 BR
BECMG 2602/2604 7000 NSW=
TAF VTUD 250500Z 2506/2606 10005KT 8000 SCT030 BKN100
BECMG 2521/2523 3000 BR
BECMG 2602/2604 7000 NSW=
TAF VTUL 250500Z 2506/2606 14004KT 8000 SCT030 SCT100
BECMG 2521/2523 3000 BR
BECMG 2602/2604 7000 NSW=
TAF VTUI 250500Z 2506/2606 14005KT 9000 SCT030 BKN100
BECMG 2521/2523 5000 BR
BECMG 2602/2604 8000 NSW=
TAF VTUW 250500Z 2506/2606 12006KT 9000 SCT030 BKN100
BECMG 2521/2523 5000 BR
BECMG 2602/2604 8000 NSW=



FTTH31 VTCC 250500

TAF VTCC 250500Z 2506/2612 24005KT 9000 NSC=
TAF VTCT 250500Z 2506/2612 26005KT CAVOK=
TAF VTCH 250500Z 2506/2606 24005KT 9999 FEW025
BECMG 2523/2601 2000 BR
BECMG 2603/2605 9000 NSW=
TAF VTCN 250500Z 2506/2606 22005KT CAVOK=
TAF VTCL 250500Z 2506/2606 22005KT 5000 HZ NSC=
TAF VTCP 250500Z 2506/2606 16005KT 3000 HZ NSC
BECMG 2600/2602 1000 BR
BECMG 2604/2606 5000 HZ=
TAF VTPT 250500Z 2506/2606 22005KT 6000 FEW028=
TAF VTPM 250500Z 2506/2606 25005KT 9000 NSC=
TAF VTPP 250500Z 2506/2606 18007KT 7000 FEW030=
TAF VTPB 250500Z 2506/2606 18005KT 7000 FEW030=
TAF VTPO 250500Z 2506/2606 18005KT 6000 FEW025
BECMG 2523/2601 4000 BR
BECMG 2603/2605 7000 NSW=



FTTH31 VTBU 251100
TAF VTBU 251100Z 2512/2612 19008KT 8000 FEW020=



FTTH31 VTUU 251100
TAF VTUU 251100Z 2512/2612 24005KT 9000 FEW035
TEMPO 2523/2601 VRB10KT 5000 RA SCT020=
TAF VTUJ 251100Z 2512/2612 21005KT 8000 FEW035
BECMG 2520/2522 4000 BR
BECMG 2601/2603 7000 NSW=
TAF VTUO 251100Z 2512/2612 19008KT 8000 FEW035
BECMG 2520/2522 4000 BR
BECMG 2602/2604 7000 NSW=
TAF VTUQ 251100Z 2512/2612 22005KT 9000 FEW035
BECMG 2520/2522 4000 BR
BECMG 2602/2604 7000 NSW=
TAF VTUV 251100Z 2512/2612 17008KT 8000 FEW030
BECMG 2521/2523 5000 BR
BECMG 2601/2603 7000 NSW
TEMPO 2603/2605 VRB10KT 5000 RA SCT020=



FTTH31 VTSS 251100
TAF VTSS 251100Z 2512/2612 04005KT 9999 FEW020=

TAF VTSH 251100Z 2512/2612 09005KT 9999 FEW020=

TAF VTSE 251100Z 2512/2612 16005KT 9000 FEW020=

TAF VTSM 251100Z 2512/2612 15008KT 9999 FEW020=

TAF VTSB 251100Z 2512/2612 36005KT 9000 FEW020=

TAF VTSF 251100Z 2512/2612 13005KT 9999 FEW020=

TAF VTSK 251100Z 2512/2612 08005KT 9999 FEW020=

TAF VTSC 251100Z 2512/2612 09005KT 9999 FEW020=



FTTH31 VTBS 251100
TAF VTBS 251100Z 2512/2618 20012KT 9000 FEW020
TEMPO 2521/2602 19010G25KT 4000 TSRA FEW018CB SCT030 BKN100=
TAF VTBD 251100Z 2512/2618 19010KT 9000 FEW020
TEMPO 2521/2602 18010G25KT 4000 TSRA FEW018CB SCT030 BKN100=
TAF VTBO 251100Z 2512/2612 21008KT 6000 FEW020
TEMPO 2512/2516 23015KT 4000 TSRA FEW018CB SCT030
BECMG 2518/2520 12005KT 3000 BR
BECMG 2601/2603 21010KT 7000 NSW=
TAF VTPH 251100Z 2512/2612 15012KT 9000 FEW030
BECMG 2518/2520 23005KT
BECMG 2601/2603 15012KT=



FTTH31 VTUK 251100

TAF VTUK 251100Z 2512/2612 16006KT 8000 FEW030 SCT100
BECMG 2521/2523 5000 BR
BECMG 2604/2606 9000 NSW=
TAF VTUD 251100Z 2512/2612 14006KT 8000 SCT030
BECMG 2521/2523 3000 BR
BECMG 2604/2606 8000 NSW=
TAF VTUL 251100Z 2512/2612 22006KT 9000 FEW030 SCT100
BECMG 2521/2523 3000 BR
BECMG 2604/2606 8000 NSW=
TAF VTUI 251100Z 2512/2612 32006KT 8000 SCT030 SCT080
BECMG 2521/2523 5000 BR
BECMG 2604/2606 9000 NSW=
TAF VTUW 251100Z 2512/2612 33006KT 7000 SCT030 SCT080
BECMG 2521/2523 5000 BR
BECMG 2604/2606 8000 NSW=



FTTH31 VTUU 251100
TAF AMD VTUO 251100Z 2512/2612 19008KT 8000 FEW035
TEMPO 2515/2517 VRB10KT 5000 RA SCT020
BECMG 2520/2522 4000 BR
BECMG 2602/2604 7000 NSW=



FTTH31 VTBU 251700
TAF VTBU 251700Z 2518/2618 18008KT 8000 FEW020=



FTTH31 VTSS 251700
TAF VTSS 251700Z 2518/2618 30003KT 9999 FEW020
BECMG 2604/2606 04010KT
BECMG 2613/2615 30003KT=

TAF VTSH 251700Z 2518/2618 09005KT 9999 FEW020=

TAF VTSE 251700Z 2518/2618 31005KT 8000 FEW020=

TAF VTSM 251700Z 2518/2618 15005KT 9999 FEW020=

TAF VTSB 251700Z 2518/2618 33003KT 8000 FEW020
BECMG 2604/2606 03010KT
BECMG 2613/2615 33003KT=

TAF VTSF 251700Z 2518/2618 28003KT 9000 FEW020
BECMG 2604/2606 12010KT
BECMG 2613/2615 28003KT=

TAF VTSK 251700Z 2518/2618 08005KT 9999 FEW020=

TAF VTSC 251700Z 2518/2618 19003KT 9999 FEW020
BECMG 2603/2605 08010KT
BECMG 2613/2615 19003KT=



FTTH31 VTSP 251700
TAF VTSP 251700Z 2518/2624 00000KT 9999 FEW020
BECMG 2600/2602 10008KT
BECMG 2606/2608 30008KT
BECMG 2616/2618 00000KT=
TAF VTSG 251700Z 2518/2618 00000KT 9999 FEW020
BECMG 2600/2602 08006KT=
TAF VTST 251700Z 2518/2618 00000KT 9999 FEW020
BECMG 2600/2602 06006KT=
TAF VTSR 251700Z 2518/2618 00000KT 9999 FEW020
BECMG 2602/2604 10006KT=



FTTH31 VTUK 251700

TAF VTUK 251700Z 2518/2618 10006KT 7000 FEW030 SCT100
BECMG 2521/2523 5000 BR
BECMG 2604/2606 9000 NSW SCT030=
TAF VTUD 251700Z 2518/2618 10006KT 7000 NSC
BECMG 2521/2523 3000 BR
BECMG 2604/2606 9000 NSW SCT030=
TAF VTUL 251700Z 2518/2618 16003KT 7000 NSC
BECMG 2521/2523 3000 BR
BECMG 2604/2606 9000 NSW SCT030=
TAF VTUI 251700Z 2518/2618 14006KT 7000 FEW030 SCT100
BECMG 2521/2523 4000 BR
BECMG 2604/2606 9000 NSW SCT030 SCT100
TEMPO 2608/2614 VRB10G20KT 5000 TSRA FEW018CB BKN020 BKN100=
TAF VTUW 251700Z 2518/2618 14006KT 6000 FEW030 SCT100
BECMG 2521/2523 4000 BR
BECMG 2604/2606 9000 NSW SCT030 SCT100
TEMPO 2608/2614 VRB10G20KT 5000 TSRA FEW018CB BKN020 BKN100=



FTTH31 VTBU 252300
TAF VTBU 252300Z 2600/2624 18009KT 9000 FEW020=



FTTH31 VTUU 252300
TAF VTUU 252300Z 2600/2624 19005KT 9000 FEW035=
TAF VTUJ 252300Z 2600/2624 16005KT 4000 BR FEW035
BECMG 2601/2603 9000 NSW=
TAF VTUO 252300Z 2600/2624 22007KT 4000 BR FEW035
BECMG 2602/2604 7000 NSW=
TAF VTUQ 252300Z 2600/2624 22006KT 8000 FEW035=
TAF VTUV 252300Z 2600/2624 17006KT 8000 FEW035=



FTTH31 VTCC 252300

TAF VTCC 252300Z 2600/2706 00000KT 9000 NSC=
TAF VTCT 252300Z 2600/2706 VRB02KT 6000 NSC=
TAF VTCH 252300Z 2600/2624 00000KT 2000 BR NSC
BECMG 2601/2603 9999 NSW=
TAF VTCN 252300Z 2600/2624 00000KT 7000 FEW040=
TAF VTCL 252300Z 2600/2624 00000KT 7000 NSC
BECMG 2600/2602 3000 HZ
BECMG 2604/2606 7000 NSW=
TAF VTCP 252300Z 2600/2624 00000KT 1000 BR NSC
BECMG 2604/2606 5000 HZ=
TAF VTPT 252300Z 2600/2624 00000KT 5000 BR FEW028=
TAF VTPM 252300Z 2600/2624 00000KT 7000 NSC=
TAF VTPP 252300Z 2600/2624 00000KT 5000 BR NSC=
TAF VTPB 252300Z 2600/2624 00000KT 5000 BR NSC=
TAF VTPO 252300Z 2600/2624 VRB02KT 2000 BR FEW025
BECMG 2604/2606 9000 NSW=



FTTH31 VTSP 252300
TAF VTSP 252300Z 2600/2706 10008KT 9999 FEW020
BECMG 2606/2608 30008KT
BECMG 2616/2618 00000KT=
TAF VTSG 252300Z 2600/2624 08006KT 9999 FEW020=
TAF VTST 252300Z 2600/2624 06006KT 9999 FEW020=
TAF VTSR 252300Z 2600/2624 00000KT 9999 FEW020
BECMG 2602/2604 10006KT=



FTTH31 VTUK 252300

TAF VTUK 252300Z 2600/2624 12004KT 5000 BR FEW030
BECMG 2603/2605 8000 NSW SCT030=
TAF VTUD 252300Z 2600/2624 10004KT 4000 BR NSC
BECMG 2603/2605 8000 NSW SCT030=
TAF VTUL 252300Z 2600/2624 24004KT 3000 BR NSC
BECMG 2603/2605 8000 NSW SCT030=
TAF VTUI 252300Z 2600/2624 10005KT 4000 BR FEW030 SCT100
BECMG 2603/2605 8000 NSW SCT030 SCT080
TEMPO 2608/2614 VRB10G20KT 5000 TSRA FEW018CB BKN020 BKN100=
TAF VTUW 252300Z 2600/2624 10005KT 4000 BR FEW030 SCT100
BECMG 2603/2605 8000 NSW SCT030 SCT080
TEMPO 2608/2614 VRB10G20KT 5000 TSRA FEW018CB BKN020 BKN100=




New Window